• Join FlightAware (Why Join?)
  • Login
  • US Flag 
08:02AM EDT


 

Airport Tracker/Info


-or-


 

Live Flight TrackerFlight Track Log ✈ N758FR ✈ 20-Oct-2013 ✈ KMTP - KHWV

Flight Track Log - Related Links

Times and Time Zones

All times are in EDT time to prevent confusion due to time zone crossing. See the N758FR flight status page for this flight to view local times or setup timezone preferences in your user account.

Time Position Orientation Groundspeed Altitude Reporting Facility
EDT Latitude Longitude Course Direction KTS MPH feet Rate Location/Type
04:17PM 41.0172 -71.9736 249° West 113 130 4,500  Level Boston Center
04:18PM 41.0033 -72.0161 247° West 113 130 4,400  Descending Boston Center
04:19PM 40.9900 -72.0525 244° Southwest 109 125 4,600 60 Climbing Boston Center
04:20PM 40.9733 -72.0872 238° Southwest 111 128 4,600  Level Boston Center
04:21PM 40.9581 -72.1228 240° Southwest 112 129 4,600  Level Boston Center
04:23PM 41.0086 -72.1536 249° West  Level FlightAware Approximate
04:23PM 40.9333 -72.2000 247° West 115 132 4,600  Level New York TRACON
04:24PM 40.9167 -72.2500 246° West 114 131 4,600 -60 Level New York TRACON
04:25PM 40.9000 -72.2833 237° Southwest 114 131 4,500 -60 Descending New York TRACON
04:26PM 40.8833 -72.3167 237° Southwest 113 130 4,500  Level New York TRACON
04:27PM 40.8833 -72.3500 270° West 110 127 4,500 -60 Level New York TRACON
04:28PM 40.8667 -72.4000 246° West 112 129 4,400  Descending New York TRACON
04:29PM 40.8500 -72.4333 237° Southwest 110 127 4,500 60 Climbing New York TRACON
04:30PM 40.8500 -72.4667 270° West 114 131 4,600  Climbing New York TRACON
04:31PM 40.8333 -72.5000 237° Southwest 115 132 4,600  Level New York TRACON
04:32PM 40.8167 -72.5500 246° West 116 133 4,600  Level New York TRACON
04:34PM 40.8178 -72.6154 252° West  Level Estimated
04:41PM 40.8167 -72.8667 258° West  Level FlightAware Approximate
04:42PM 40.8219 -72.8669 258° West  Level Estimated
04:43PM 40.8167 -72.8667 258° West  Level FlightAware Approximate
04:44PM 40.8219 -72.8669 258° West  Level Estimated
04:45PM 40.8167 -72.8667 258° West  Level FlightAware Approximate
04:46PM 40.8219 -72.8669 258° West  Level Estimated
04:47PM 40.8167 -72.8667 258° West  Level FlightAware Approximate
04:48PM 40.8219 -72.8669 258° West  Level Estimated